createdAt,value
2023-02-27T00:02:19.980Z,10.33
2023-02-27T00:04:47.810Z,10.40
2023-02-27T00:07:15.798Z,10.50
2023-02-27T00:09:43.659Z,10.20
2023-02-27T00:12:12.375Z,9.73
2023-02-27T00:14:40.288Z,10.37
2023-02-27T00:17:08.169Z,9.87
2023-02-27T00:19:37.429Z,9.93
2023-02-27T00:22:05.265Z,10.73
2023-02-27T00:24:33.121Z,10.07
2023-02-27T00:27:00.975Z,10.37
2023-02-27T00:29:28.879Z,11.37
2023-02-27T00:31:56.865Z,10.53
2023-02-27T00:34:24.822Z,11.63
2023-02-27T00:36:54.083Z,13.27
2023-02-27T00:39:21.908Z,11.67
2023-02-27T00:41:49.754Z,13.33
2023-02-27T00:44:17.656Z,14.40
2023-02-27T00:46:45.498Z,13.83
2023-02-27T00:49:13.584Z,13.83
2023-02-27T00:51:41.415Z,13.37
2023-02-27T00:54:10.668Z,12.30
2023-02-27T00:56:38.470Z,11.97
2023-02-27T00:59:06.356Z,11.93
2023-02-27T01:01:34.181Z,11.90
2023-02-27T01:04:02.476Z,11.57
2023-02-27T01:06:30.464Z,11.10
2023-02-27T01:08:58.290Z,11.60
2023-02-27T01:11:27.862Z,11.30
2023-02-27T01:13:55.983Z,11.17
2023-02-27T01:16:24.105Z,12.30
2023-02-27T01:18:52.018Z,11.93
2023-02-27T01:21:20.070Z,11.17
2023-02-27T01:23:47.900Z,10.53
2023-02-27T01:26:15.747Z,10.77
2023-02-27T01:28:45.059Z,11.10
2023-02-27T01:31:12.869Z,11.23
2023-02-27T01:33:40.694Z,11.23
2023-02-27T01:36:09.400Z,10.40
2023-02-27T01:38:37.587Z,10.40
2023-02-27T01:41:07.332Z,9.70
2023-02-27T01:43:35.571Z,9.50
2023-02-27T01:46:04.924Z,9.60
2023-02-27T01:48:35.571Z,9.47
2023-02-27T01:51:08.017Z,8.93
2023-02-27T01:53:39.235Z,9.93
2023-02-27T01:56:11.492Z,9.73
2023-02-27T01:58:39.854Z,9.73
2023-02-27T02:01:09.146Z,10.17
2023-02-27T02:03:43.931Z,9.43
2023-02-27T02:06:13.525Z,9.40
2023-02-27T02:08:45.922Z,9.97
2023-02-27T02:11:16.087Z,9.83
2023-02-27T02:13:44.294Z,10.27
2023-02-27T02:16:34.497Z,9.70
2023-02-27T02:19:16.476Z,9.40
2023-02-27T02:22:19.952Z,9.70
2023-02-27T02:25:28.430Z,9.80
2023-02-27T02:28:10.000Z,9.60
2023-02-27T02:31:25.816Z,8.40
2023-02-27T02:34:10.714Z,4.43
2023-02-27T02:37:17.355Z,0.60
2023-02-27T02:40:11.534Z,0.77
2023-02-27T02:42:48.995Z,0.60
2023-02-27T02:45:23.546Z,1.10
2023-02-27T02:48:02.918Z,0.60
2023-02-27T02:50:37.346Z,0.87
2023-02-27T02:53:09.389Z,0.60
2023-02-27T02:55:43.627Z,1.27
2023-02-27T02:58:16.902Z,0.77
2023-02-27T03:00:50.720Z,0.90
2023-02-27T03:03:24.001Z,0.60
2023-02-27T03:05:57.949Z,0.80
2023-02-27T03:08:30.251Z,1.37
2023-02-27T03:11:01.845Z,0.83
2023-02-27T03:13:34.868Z,0.67
2023-02-27T03:16:08.508Z,1.13
2023-02-27T03:18:42.337Z,1.20
2023-02-27T03:21:14.832Z,1.10
2023-02-27T03:23:45.827Z,1.03
2023-02-27T03:26:18.208Z,1.20
2023-02-27T03:28:56.012Z,1.57
2023-02-27T03:31:31.428Z,0.83
2023-02-27T03:34:08.843Z,0.80
2023-02-27T03:36:45.873Z,1.33
2023-02-27T03:39:23.326Z,1.67
2023-02-27T03:41:59.865Z,1.43
2023-02-27T03:44:52.418Z,1.60
2023-02-27T03:47:20.992Z,1.70
2023-02-27T03:49:51.116Z,1.40
2023-02-27T03:52:20.047Z,1.50
2023-02-27T03:54:54.256Z,2.23
2023-02-27T03:57:23.930Z,1.97
2023-02-27T03:59:53.333Z,1.33
2023-02-27T04:02:22.413Z,2.00
2023-02-27T04:04:50.264Z,1.53
2023-02-27T04:07:28.770Z,1.33
2023-02-27T04:10:15.089Z,1.53
2023-02-27T04:13:18.420Z,2.23
2023-02-27T04:16:06.021Z,1.67
2023-02-27T04:18:52.496Z,1.87
2023-02-27T04:21:29.256Z,2.37
2023-02-27T04:24:05.994Z,2.67
2023-02-27T04:26:43.923Z,2.97
2023-02-27T04:29:20.554Z,2.80
2023-02-27T04:31:55.669Z,2.33
2023-02-27T04:34:30.347Z,2.53
2023-02-27T04:37:01.440Z,2.10
2023-02-27T04:39:34.246Z,2.60
2023-02-27T04:42:05.076Z,2.20
2023-02-27T04:44:37.323Z,2.57
2023-02-27T04:47:08.437Z,2.37
2023-02-27T04:49:39.464Z,2.10
2023-02-27T04:52:12.815Z,2.90
2023-02-27T04:54:46.841Z,2.90
2023-02-27T04:57:20.454Z,2.43
2023-02-27T04:59:55.152Z,2.77
2023-02-27T05:02:26.837Z,3.03
2023-02-27T05:04:59.159Z,3.07
2023-02-27T05:07:31.431Z,3.00
2023-02-27T05:10:01.947Z,2.50
2023-02-27T05:12:51.935Z,3.63
2023-02-27T05:15:28.363Z,3.00
2023-02-27T05:18:02.114Z,2.77
2023-02-27T05:20:36.441Z,3.10
2023-02-27T05:23:13.616Z,2.93
2023-02-27T05:25:49.804Z,3.03
2023-02-27T05:28:22.593Z,3.00
2023-02-27T05:30:58.257Z,3.00
2023-02-27T05:33:32.064Z,3.80
2023-02-27T05:36:07.263Z,2.87
2023-02-27T05:38:40.841Z,2.70
2023-02-27T05:41:17.336Z,2.97
2023-02-27T05:43:49.063Z,3.83
2023-02-27T05:46:23.030Z,2.83
2023-02-27T05:48:56.305Z,2.73
2023-02-27T05:51:29.477Z,3.07
2023-02-27T05:54:04.440Z,1.73
2023-02-27T05:56:39.271Z,2.47
2023-02-27T05:59:14.574Z,2.47
2023-02-27T06:01:46.201Z,2.67
2023-02-27T06:04:14.302Z,2.37
2023-02-27T06:06:42.679Z,2.57
2023-02-27T06:09:11.166Z,2.30
2023-02-27T06:11:39.006Z,2.63
2023-02-27T06:14:06.852Z,2.23
2023-02-27T06:16:38.172Z,2.00
2023-02-27T06:19:07.665Z,2.43
2023-02-27T06:21:35.659Z,2.60
2023-02-27T06:24:05.587Z,2.47
2023-02-27T06:26:33.535Z,2.50
2023-02-27T06:29:01.526Z,2.43
2023-02-27T06:31:29.562Z,2.80
2023-02-27T06:33:57.949Z,0.77
2023-02-27T06:36:29.476Z,0.97
2023-02-27T06:38:58.078Z,1.30
2023-02-27T06:41:26.998Z,2.23
2023-02-27T06:43:55.806Z,1.57
2023-02-27T06:46:23.867Z,1.10
2023-02-27T06:48:51.785Z,0.93
2023-02-27T06:51:19.638Z,1.57
2023-02-27T06:53:48.938Z,1.20
2023-02-27T06:56:16.805Z,1.40
2023-02-27T06:58:44.689Z,0.70
2023-02-27T07:01:13.536Z,1.27
2023-02-27T07:03:41.558Z,1.27
2023-02-27T07:06:09.448Z,0.97
2023-02-27T07:08:38.088Z,1.43
2023-02-27T07:11:27.402Z,1.40
2023-02-27T07:13:55.333Z,1.60
2023-02-27T07:16:23.233Z,1.10
2023-02-27T07:18:51.079Z,2.03
2023-02-27T07:21:19.539Z,1.23
2023-02-27T07:23:47.447Z,1.67
2023-02-27T07:26:15.295Z,1.17
2023-02-27T07:28:44.849Z,1.10
2023-02-27T07:31:12.821Z,0.70
2023-02-27T07:33:41.037Z,1.10
2023-02-27T07:36:09.163Z,1.67
2023-02-27T07:38:36.999Z,1.50
2023-02-27T07:41:04.953Z,1.60
2023-02-27T07:43:32.768Z,1.07
2023-02-27T07:46:04.072Z,1.57
2023-02-27T07:48:32.288Z,6.17
2023-02-27T07:51:03.721Z,5.03
2023-02-27T07:53:31.625Z,4.90
2023-02-27T07:55:59.583Z,5.33
2023-02-27T07:58:27.406Z,4.40
2023-02-27T08:00:57.565Z,4.57
2023-02-27T08:03:26.862Z,5.47
2023-02-27T08:05:54.673Z,5.27
2023-02-27T08:08:22.532Z,5.33
2023-02-27T08:10:51.443Z,5.00
2023-02-27T08:13:25.190Z,4.87
2023-02-27T08:16:03.774Z,5.20
2023-02-27T08:18:35.009Z,5.10
2023-02-27T08:21:05.096Z,4.88
2023-02-27T08:23:34.591Z,5.03
2023-02-27T08:26:02.763Z,5.05
2023-02-27T08:28:31.101Z,4.47
2023-02-27T08:30:58.974Z,4.68
2023-02-27T08:33:27.326Z,3.63
2023-02-27T08:35:57.400Z,5.25
2023-02-27T08:38:26.543Z,5.20
2023-02-27T08:40:54.490Z,5.35
2023-02-27T08:43:22.859Z,5.47
2023-02-27T08:45:51.436Z,4.47
2023-02-27T08:48:19.484Z,4.63
2023-02-27T08:50:47.780Z,5.43
2023-02-27T08:53:17.101Z,5.30
2023-02-27T08:55:45.036Z,8.43
2023-02-27T08:58:12.845Z,5.45
2023-02-27T09:00:40.705Z,5.70
2023-02-27T09:03:09.998Z,4.57
2023-02-27T09:05:37.960Z,4.65
2023-02-27T09:08:07.590Z,4.70
2023-02-27T09:10:36.932Z,4.65
2023-02-27T09:13:04.950Z,5.57
2023-02-27T09:15:35.557Z,4.80
2023-02-27T09:18:06.304Z,4.75
2023-02-27T09:20:35.951Z,5.10
2023-02-27T09:23:04.847Z,4.32
2023-02-27T09:25:32.822Z,7.03
2023-02-27T09:28:02.077Z,7.68
2023-02-27T09:30:30.101Z,5.40
2023-02-27T09:32:58.090Z,5.68
2023-02-27T09:35:26.470Z,7.63
2023-02-27T09:37:54.420Z,5.80
2023-02-27T09:40:25.978Z,5.18
2023-02-27T09:42:58.326Z,5.80
2023-02-27T09:45:30.051Z,5.88
2023-02-27T09:48:03.030Z,5.95
2023-02-27T09:50:38.721Z,6.70
2023-02-27T09:53:13.429Z,7.10
2023-02-27T09:55:43.874Z,6.30
2023-02-27T09:58:29.115Z,6.00
2023-02-27T10:01:07.148Z,6.53
2023-02-27T10:03:49.351Z,7.10
2023-02-27T10:06:26.358Z,5.80
2023-02-27T10:09:07.333Z,5.90
2023-02-27T10:11:44.753Z,6.80
2023-02-27T10:14:25.933Z,7.97
2023-02-27T10:16:57.836Z,8.67
2023-02-27T10:19:28.282Z,12.03
2023-02-27T10:21:59.225Z,7.77
2023-02-27T10:24:31.305Z,7.30
2023-02-27T10:27:02.512Z,9.27
2023-02-27T10:29:32.438Z,8.43
2023-02-27T10:32:06.536Z,8.38
2023-02-27T10:34:36.709Z,24.70
2023-02-27T10:37:07.339Z,10.20
2023-02-27T10:39:46.301Z,8.27
2023-02-27T10:42:17.361Z,8.23
2023-02-27T10:44:46.253Z,8.70
2023-02-27T10:47:17.209Z,7.68
2023-02-27T10:49:45.446Z,7.68
2023-02-27T10:52:15.987Z,10.05
2023-02-27T10:54:44.538Z,7.30
2023-02-27T10:57:30.699Z,6.32
2023-02-27T11:00:02.127Z,5.75
2023-02-27T11:02:37.804Z,6.22
2023-02-27T11:05:08.995Z,6.35
2023-02-27T11:07:39.258Z,6.05
2023-02-27T11:10:18.891Z,6.17
2023-02-27T11:13:01.348Z,5.82
2023-02-27T11:15:31.932Z,5.73
2023-02-27T11:18:25.774Z,6.37
2023-02-27T11:20:54.363Z,6.83
2023-02-27T11:23:24.925Z,7.22
2023-02-27T11:26:10.770Z,6.57
2023-02-27T11:28:41.820Z,7.20
2023-02-27T11:31:18.161Z,6.23
2023-02-27T11:33:53.501Z,7.70
2023-02-27T11:36:23.719Z,6.23
2023-02-27T11:38:54.286Z,6.90
2023-02-27T11:41:30.919Z,6.70
2023-02-27T11:44:00.842Z,6.40
2023-02-27T11:46:46.891Z,6.10
2023-02-27T11:49:30.621Z,6.50
2023-02-27T11:52:07.064Z,6.83
2023-02-27T11:54:42.048Z,9.33
2023-02-27T11:57:22.208Z,7.87
2023-02-27T11:59:54.200Z,9.07
2023-02-27T12:02:29.658Z,7.83
2023-02-27T12:05:05.181Z,8.50
2023-02-27T12:07:39.544Z,8.10
2023-02-27T12:10:15.194Z,8.27
2023-02-27T12:12:48.301Z,6.80
2023-02-27T12:15:27.479Z,7.07
2023-02-27T12:18:08.173Z,6.50
2023-02-27T12:20:51.605Z,7.67
2023-02-27T12:23:27.253Z,8.23
2023-02-27T12:26:03.701Z,7.67
2023-02-27T12:28:44.935Z,8.20
2023-02-27T12:31:43.572Z,8.00
2023-02-27T12:34:21.538Z,7.57
2023-02-27T12:36:52.941Z,7.77
2023-02-27T12:39:22.944Z,7.20
2023-02-27T12:42:24.650Z,7.70
2023-02-27T12:45:07.362Z,7.00
2023-02-27T12:47:41.419Z,6.87
2023-02-27T12:50:16.189Z,6.90
2023-02-27T12:53:00.952Z,8.30
2023-02-27T12:55:32.177Z,8.13
2023-02-27T12:58:23.546Z,8.37
2023-02-27T13:00:59.808Z,6.77
2023-02-27T13:03:34.460Z,7.27
2023-02-27T13:06:08.875Z,7.27
2023-02-27T13:08:59.786Z,7.30
2023-02-27T13:11:43.479Z,6.97
2023-02-27T13:14:30.731Z,7.37
2023-02-27T13:17:04.156Z,7.30
2023-02-27T13:19:37.316Z,7.27
2023-02-27T13:22:13.196Z,8.20
2023-02-27T13:24:47.649Z,7.47
2023-02-27T13:27:22.883Z,7.40
2023-02-27T13:30:06.659Z,8.00
2023-02-27T13:32:44.890Z,7.87
2023-02-27T13:35:28.157Z,7.33
2023-02-27T13:37:57.851Z,7.70
2023-02-27T13:40:37.253Z,7.30
2023-02-27T13:43:28.080Z,7.17
2023-02-27T13:45:58.468Z,7.37
2023-02-27T13:48:52.382Z,7.00
2023-02-27T13:51:48.788Z,7.17
2023-02-27T13:54:22.192Z,7.53
2023-02-27T13:57:06.644Z,7.90
2023-02-27T13:59:39.619Z,7.87
2023-02-27T14:02:34.714Z,8.13
2023-02-27T14:05:06.718Z,7.97
2023-02-27T14:07:49.385Z,8.40
2023-02-27T14:10:23.743Z,8.47
2023-02-27T14:12:53.437Z,8.73
2023-02-27T14:15:52.036Z,8.70
2023-02-27T14:18:55.938Z,8.77
2023-02-27T14:21:57.192Z,8.37
2023-02-27T14:24:29.838Z,8.67
2023-02-27T14:26:58.168Z,9.77
2023-02-27T14:29:31.363Z,10.20
2023-02-27T14:32:01.755Z,9.70
2023-02-27T14:34:30.588Z,9.43
2023-02-27T14:37:02.740Z,9.93
2023-02-27T14:39:35.534Z,10.00
2023-02-27T14:42:30.843Z,10.20
2023-02-27T14:45:00.849Z,9.90
2023-02-27T14:47:33.511Z,9.57
2023-02-27T14:50:04.106Z,10.07
2023-02-27T14:52:41.704Z,10.27
2023-02-27T14:55:27.781Z,10.60
2023-02-27T14:57:58.834Z,9.50
2023-02-27T15:00:33.875Z,9.53
2023-02-27T15:03:11.784Z,9.10
2023-02-27T15:05:40.108Z,10.20
2023-02-27T15:08:15.806Z,9.53
2023-02-27T15:10:44.770Z,9.50
2023-02-27T15:13:24.752Z,9.53
2023-02-27T15:16:34.614Z,9.90
2023-02-27T15:19:15.025Z,9.43
2023-02-27T15:21:49.789Z,10.57
2023-02-27T15:24:35.238Z,11.30
2023-02-27T15:27:14.775Z,11.47
2023-02-27T15:29:50.575Z,11.30
2023-02-27T15:32:27.837Z,12.20
2023-02-27T15:34:59.081Z,12.90
2023-02-27T15:37:30.055Z,13.13
2023-02-27T15:39:59.930Z,12.47
2023-02-27T15:42:32.683Z,13.30
2023-02-27T15:45:01.367Z,14.67
2023-02-27T15:47:35.280Z,16.07
2023-02-27T15:50:13.462Z,16.00
2023-02-27T15:52:44.118Z,17.37
2023-02-27T15:55:17.554Z,16.23
2023-02-27T15:58:11.074Z,15.40
2023-02-27T16:00:40.327Z,15.27
2023-02-27T16:03:10.957Z,17.00
2023-02-27T16:05:43.766Z,15.10
2023-02-27T16:08:19.513Z,14.00
2023-02-27T16:10:48.620Z,17.07
2023-02-27T16:13:36.004Z,15.53
2023-02-27T16:16:06.724Z,14.67
2023-02-27T16:18:40.046Z,16.00
2023-02-27T16:21:14.247Z,16.77
2023-02-27T16:23:45.109Z,14.20
2023-02-27T16:26:31.199Z,14.97
2023-02-27T16:29:02.559Z,15.70
2023-02-27T16:31:35.893Z,15.67
2023-02-27T16:34:17.678Z,15.63
2023-02-27T16:36:55.995Z,15.30
2023-02-27T16:39:26.814Z,15.57
2023-02-27T16:41:55.754Z,15.57
2023-02-27T16:44:27.895Z,14.37
2023-02-27T16:46:59.694Z,16.37
2023-02-27T16:49:33.246Z,14.67
2023-02-27T16:52:03.504Z,14.50
2023-02-27T16:54:33.249Z,20.73
2023-02-27T16:57:03.545Z,16.10
2023-02-27T16:59:34.593Z,14.70
2023-02-27T17:02:05.416Z,16.23
2023-02-27T17:04:37.533Z,16.43
2023-02-27T17:07:09.164Z,17.60
2023-02-27T17:09:37.110Z,24.87
2023-02-27T17:12:07.416Z,16.73
2023-02-27T17:14:40.021Z,15.07
2023-02-27T17:17:08.305Z,15.27
2023-02-27T17:19:38.871Z,15.97
2023-02-27T17:22:09.632Z,14.40
2023-02-27T17:24:38.146Z,14.83
2023-02-27T17:27:10.362Z,14.47
2023-02-27T17:29:44.744Z,14.73
2023-02-27T17:32:22.532Z,14.20
2023-02-27T17:34:57.125Z,15.87
2023-02-27T17:37:27.153Z,16.17
2023-02-27T17:39:56.940Z,15.53
2023-02-27T17:42:33.002Z,16.17
2023-02-27T17:45:09.611Z,16.33
2023-02-27T17:47:52.514Z,17.93
2023-02-27T17:50:33.179Z,18.73
2023-02-27T17:53:05.208Z,18.33
2023-02-27T17:58:39.805Z,20.70
2023-02-27T18:01:23.753Z,20.87
2023-02-27T18:03:55.981Z,20.40
2023-02-27T18:06:28.710Z,21.27
2023-02-27T18:09:04.860Z,22.27
2023-02-27T18:11:36.613Z,21.43
2023-02-27T18:14:16.862Z,23.70
2023-02-27T18:17:01.305Z,23.90
2023-02-27T18:19:32.730Z,24.20
2023-02-27T18:22:27.662Z,25.47
2023-02-27T18:25:11.037Z,26.83
2023-02-27T18:27:44.704Z,25.87
2023-02-27T18:30:14.461Z,24.07
2023-02-27T18:32:44.792Z,24.10
2023-02-27T18:35:13.154Z,22.67
2023-02-27T18:37:47.935Z,23.53
2023-02-27T18:40:35.645Z,22.17
2023-02-27T18:43:04.147Z,21.43
2023-02-27T18:45:32.622Z,21.13
2023-02-27T18:48:06.150Z,32.80
2023-02-27T18:50:41.641Z,23.97
2023-02-27T18:53:15.153Z,21.30
2023-02-27T18:55:45.880Z,20.13
2023-02-27T18:58:17.592Z,19.90
2023-02-27T19:00:46.792Z,18.73
2023-02-27T19:03:16.638Z,16.40
2023-02-27T19:05:46.084Z,18.43
2023-02-27T19:08:20.033Z,18.27
2023-02-27T19:10:49.992Z,17.83
2023-02-27T19:13:17.900Z,19.17
2023-02-27T19:15:48.599Z,18.50
2023-02-27T19:18:18.239Z,18.73
2023-02-27T19:20:47.301Z,17.37
2023-02-27T19:23:16.620Z,16.70
2023-02-27T19:25:45.966Z,18.53
2023-02-27T19:28:14.076Z,21.20
2023-02-27T19:30:42.238Z,21.77
2023-02-27T19:33:10.146Z,19.90
2023-02-27T19:35:43.722Z,17.90
2023-02-27T19:38:12.562Z,19.70
2023-02-27T19:40:45.523Z,21.47
2023-02-27T19:43:15.403Z,26.53
2023-02-27T19:45:43.446Z,23.13
2023-02-27T19:48:15.193Z,22.13
2023-02-27T19:50:43.430Z,20.77
2023-02-27T19:53:21.674Z,19.23
2023-02-27T19:55:59.844Z,18.23
2023-02-27T19:58:41.181Z,17.87
2023-02-27T20:01:25.633Z,19.37
2023-02-27T20:03:59.706Z,18.23
2023-02-27T20:06:39.568Z,15.10
2023-02-27T20:09:10.974Z,15.57
2023-02-27T20:11:47.410Z,16.33
2023-02-27T20:14:17.525Z,21.00
2023-02-27T20:16:46.313Z,18.60
2023-02-27T20:19:17.769Z,19.23
2023-02-27T20:21:46.435Z,25.33
2023-02-27T20:24:18.904Z,14.27
2023-02-27T20:27:01.030Z,17.60
2023-02-27T20:29:39.646Z,16.47
2023-02-27T20:32:10.521Z,16.30
2023-02-27T20:34:47.924Z,16.63
2023-02-27T20:37:15.764Z,17.27
2023-02-27T20:39:48.880Z,14.10
2023-02-27T20:45:02.918Z,16.13
2023-02-27T20:47:31.583Z,16.13
2023-02-27T20:49:59.560Z,16.47
2023-02-27T20:52:28.147Z,15.17
2023-02-27T20:54:57.229Z,15.83
2023-02-27T20:57:26.565Z,15.50
2023-02-27T20:59:54.770Z,14.03
2023-02-27T21:02:23.040Z,13.43
2023-02-27T21:04:53.393Z,13.13
2023-02-27T21:07:22.661Z,13.67
2023-02-27T21:09:51.376Z,13.70
2023-02-27T21:12:26.816Z,16.83
2023-02-27T21:14:59.324Z,20.77
2023-02-27T21:17:27.228Z,18.07
2023-02-27T21:19:55.046Z,16.53
2023-02-27T21:22:22.950Z,18.27
2023-02-27T21:24:52.530Z,15.27
2023-02-27T21:27:23.822Z,15.23
2023-02-27T21:30:03.109Z,17.23
2023-02-27T21:32:44.334Z,13.47
2023-02-27T21:36:03.582Z,13.93
2023-02-27T21:39:05.136Z,15.23
2023-02-27T21:49:28.437Z,10.00
2023-02-27T21:51:59.004Z,9.67
2023-02-27T21:54:29.468Z,9.97
2023-02-27T21:56:58.576Z,9.20
2023-02-27T21:59:26.635Z,1.27
2023-02-27T22:01:54.858Z,1.23
2023-02-27T22:04:24.709Z,1.80
2023-02-27T22:06:54.675Z,1.93
2023-02-27T22:09:22.679Z,2.23
2023-02-27T22:11:50.621Z,2.20
2023-02-27T22:14:21.346Z,2.03
2023-02-27T22:16:49.733Z,2.30
2023-02-27T22:19:21.970Z,2.00
2023-02-27T22:21:51.596Z,2.50
2023-02-27T22:24:21.936Z,2.13
2023-02-27T22:26:50.296Z,2.40
2023-02-27T22:29:18.346Z,2.37
2023-02-27T22:31:46.427Z,2.57
2023-02-27T22:34:18.690Z,2.00
2023-02-27T22:36:48.659Z,2.23
2023-02-27T22:39:17.854Z,2.67
2023-02-27T22:41:47.200Z,3.10
2023-02-27T22:44:16.575Z,2.97
2023-02-27T22:46:47.253Z,3.53
2023-02-27T22:49:18.066Z,2.23
2023-02-27T22:51:46.884Z,3.13
2023-02-27T22:54:16.122Z,2.53
2023-02-27T22:56:45.685Z,2.77
2023-02-27T22:59:14.349Z,2.80
2023-02-27T23:01:44.674Z,2.93
2023-02-27T23:04:12.962Z,3.00
2023-02-27T23:06:42.966Z,2.80
2023-02-27T23:09:14.500Z,3.13
2023-02-27T23:11:42.433Z,3.63
2023-02-27T23:14:12.608Z,2.83
2023-02-27T23:16:45.562Z,2.60
2023-02-27T23:19:17.412Z,2.40
2023-02-27T23:21:45.650Z,3.37
2023-02-27T23:24:15.343Z,3.27
2023-02-27T23:26:45.352Z,2.87
2023-02-27T23:29:14.839Z,3.00
2023-02-27T23:31:43.508Z,3.43
2023-02-27T23:34:12.100Z,2.50
2023-02-27T23:36:40.924Z,3.00
2023-02-27T23:39:09.251Z,3.23
2023-02-27T23:41:37.194Z,3.20
2023-02-27T23:44:23.008Z,2.83
2023-02-27T23:46:53.026Z,3.60
2023-02-27T23:49:21.811Z,2.73
2023-02-27T23:51:49.735Z,3.17
2023-02-27T23:54:17.784Z,2.53
2023-02-27T23:56:48.593Z,3.00
2023-02-27T23:59:16.504Z,2.80
